sensor_id;sensor_type;location;lat;lon;timestamp;P1;durP1;ratioP1;P2;durP2;ratioP2
34489;SDS011;20730;49.372;7.324;2023-02-01T00:01:20;20.30;;;12.00;;
34489;SDS011;20730;49.372;7.324;2023-02-01T00:03:47;22.00;;;12.40;;
34489;SDS011;20730;49.372;7.324;2023-02-01T00:06:14;23.33;;;12.18;;
34489;SDS011;20730;49.372;7.324;2023-02-01T00:08:41;19.63;;;11.85;;
34489;SDS011;20730;49.372;7.324;2023-02-01T00:11:09;20.58;;;13.15;;
34489;SDS011;20730;49.372;7.324;2023-02-01T00:13:38;16.80;;;11.50;;
34489;SDS011;20730;49.372;7.324;2023-02-01T00:18:35;22.20;;;11.20;;
34489;SDS011;20730;49.372;7.324;2023-02-01T00:21:02;21.55;;;13.13;;
34489;SDS011;20730;49.372;7.324;2023-02-01T00:23:31;22.98;;;11.55;;
34489;SDS011;20730;49.372;7.324;2023-02-01T00:28:27;23.95;;;12.40;;
34489;SDS011;20730;49.372;7.324;2023-02-01T00:30:55;22.48;;;13.23;;
34489;SDS011;20730;49.372;7.324;2023-02-01T00:33:23;24.00;;;13.48;;
34489;SDS011;20730;49.372;7.324;2023-02-01T00:35:50;21.08;;;12.23;;
34489;SDS011;20730;49.372;7.324;2023-02-01T00:38:17;26.42;;;14.23;;
34489;SDS011;20730;49.372;7.324;2023-02-01T00:40:44;25.35;;;13.18;;
34489;SDS011;20730;49.372;7.324;2023-02-01T00:43:11;20.55;;;12.30;;
34489;SDS011;20730;49.372;7.324;2023-02-01T00:45:38;22.48;;;12.00;;
34489;SDS011;20730;49.372;7.324;2023-02-01T00:48:05;25.38;;;13.27;;
34489;SDS011;20730;49.372;7.324;2023-02-01T00:50:32;21.00;;;12.80;;
34489;SDS011;20730;49.372;7.324;2023-02-01T00:52:59;23.48;;;12.00;;
34489;SDS011;20730;49.372;7.324;2023-02-01T00:55:26;24.85;;;14.15;;
34489;SDS011;20730;49.372;7.324;2023-02-01T00:57:53;22.17;;;12.77;;
34489;SDS011;20730;49.372;7.324;2023-02-01T01:00:19;27.05;;;14.27;;
34489;SDS011;20730;49.372;7.324;2023-02-01T01:02:48;20.23;;;12.90;;
34489;SDS011;20730;49.372;7.324;2023-02-01T01:05:14;21.58;;;12.38;;
34489;SDS011;20730;49.372;7.324;2023-02-01T01:07:41;25.60;;;13.98;;
34489;SDS011;20730;49.372;7.324;2023-02-01T01:10:08;25.67;;;13.45;;
34489;SDS011;20730;49.372;7.324;2023-02-01T01:12:36;20.00;;;12.02;;
34489;SDS011;20730;49.372;7.324;2023-02-01T01:15:03;25.92;;;14.38;;
34489;SDS011;20730;49.372;7.324;2023-02-01T01:17:30;24.95;;;14.38;;
34489;SDS011;20730;49.372;7.324;2023-02-01T01:19:58;27.15;;;15.70;;
34489;SDS011;20730;49.372;7.324;2023-02-01T01:22:25;27.42;;;15.90;;
34489;SDS011;20730;49.372;7.324;2023-02-01T01:24:52;35.10;;;18.65;;
34489;SDS011;20730;49.372;7.324;2023-02-01T01:27:19;26.80;;;14.48;;
34489;SDS011;20730;49.372;7.324;2023-02-01T01:29:49;26.40;;;15.50;;
34489;SDS011;20730;49.372;7.324;2023-02-01T01:32:17;26.25;;;15.40;;
34489;SDS011;20730;49.372;7.324;2023-02-01T01:34:44;25.30;;;15.10;;
34489;SDS011;20730;49.372;7.324;2023-02-01T01:37:11;26.27;;;13.82;;
34489;SDS011;20730;49.372;7.324;2023-02-01T01:39:37;24.95;;;14.50;;
34489;SDS011;20730;49.372;7.324;2023-02-01T01:42:04;23.58;;;13.07;;
34489;SDS011;20730;49.372;7.324;2023-02-01T01:47:28;17.92;;;10.70;;
34489;SDS011;20730;49.372;7.324;2023-02-01T01:52:24;18.58;;;9.55;;
34489;SDS011;20730;49.372;7.324;2023-02-01T01:54:52;19.95;;;10.00;;
34489;SDS011;20730;49.372;7.324;2023-02-01T01:57:23;21.65;;;10.90;;
34489;SDS011;20730;49.372;7.324;2023-02-01T01:59:58;14.30;;;8.27;;
34489;SDS011;20730;49.372;7.324;2023-02-01T02:02:39;22.08;;;11.82;;
34489;SDS011;20730;49.372;7.324;2023-02-01T02:05:07;23.52;;;12.18;;
34489;SDS011;20730;49.372;7.324;2023-02-01T02:07:35;24.90;;;12.95;;
34489;SDS011;20730;49.372;7.324;2023-02-01T02:10:05;23.10;;;12.43;;
34489;SDS011;20730;49.372;7.324;2023-02-01T02:12:40;21.48;;;13.18;;
34489;SDS011;20730;49.372;7.324;2023-02-01T02:15:09;20.73;;;12.95;;
34489;SDS011;20730;49.372;7.324;2023-02-01T02:17:49;25.83;;;12.60;;
34489;SDS011;20730;49.372;7.324;2023-02-01T02:25:59;21.83;;;12.10;;
34489;SDS011;20730;49.372;7.324;2023-02-01T02:34:28;16.13;;;9.02;;
34489;SDS011;20730;49.372;7.324;2023-02-01T02:37:18;15.80;;;8.43;;
34489;SDS011;20730;49.372;7.324;2023-02-01T02:45:55;20.23;;;8.38;;
34489;SDS011;20730;49.372;7.324;2023-02-01T02:49:01;14.00;;;7.45;;
34489;SDS011;20730;49.372;7.324;2023-02-01T02:51:44;13.65;;;7.97;;
34489;SDS011;20730;49.372;7.324;2023-02-01T02:54:36;12.77;;;8.85;;
34489;SDS011;20730;49.372;7.324;2023-02-01T02:57:23;19.77;;;9.25;;
34489;SDS011;20730;49.372;7.324;2023-02-01T03:00:14;18.70;;;8.20;;
34489;SDS011;20730;49.372;7.324;2023-02-01T03:03:03;17.35;;;8.90;;
34489;SDS011;20730;49.372;7.324;2023-02-01T03:05:49;16.25;;;8.45;;
34489;SDS011;20730;49.372;7.324;2023-02-01T03:16:10;16.45;;;7.55;;
34489;SDS011;20730;49.372;7.324;2023-02-01T03:21:28;11.13;;;6.78;;
34489;SDS011;20730;49.372;7.324;2023-02-01T03:24:10;16.95;;;6.88;;
34489;SDS011;20730;49.372;7.324;2023-02-01T03:26:41;15.48;;;8.40;;
34489;SDS011;20730;49.372;7.324;2023-02-01T03:29:13;14.38;;;8.07;;
34489;SDS011;20730;49.372;7.324;2023-02-01T03:31:44;15.60;;;9.27;;
34489;SDS011;20730;49.372;7.324;2023-02-01T03:34:11;21.17;;;9.57;;
34489;SDS011;20730;49.372;7.324;2023-02-01T03:37:01;21.42;;;10.25;;
34489;SDS011;20730;49.372;7.324;2023-02-01T03:39:31;18.60;;;9.60;;
34489;SDS011;20730;49.372;7.324;2023-02-01T03:42:02;17.20;;;9.82;;
34489;SDS011;20730;49.372;7.324;2023-02-01T03:44:56;16.13;;;10.10;;
34489;SDS011;20730;49.372;7.324;2023-02-01T03:47:27;20.73;;;9.35;;
34489;SDS011;20730;49.372;7.324;2023-02-01T03:50:30;17.13;;;9.88;;
34489;SDS011;20730;49.372;7.324;2023-02-01T03:52:59;21.00;;;9.65;;
34489;SDS011;20730;49.372;7.324;2023-02-01T03:55:34;17.10;;;9.48;;
34489;SDS011;20730;49.372;7.324;2023-02-01T04:00:40;20.00;;;10.07;;
34489;SDS011;20730;49.372;7.324;2023-02-01T04:03:07;16.52;;;9.10;;
34489;SDS011;20730;49.372;7.324;2023-02-01T04:05:34;15.30;;;8.82;;
34489;SDS011;20730;49.372;7.324;2023-02-01T04:08:04;12.70;;;7.60;;
34489;SDS011;20730;49.372;7.324;2023-02-01T04:10:31;15.20;;;9.90;;
34489;SDS011;20730;49.372;7.324;2023-02-01T04:12:58;18.55;;;9.05;;
34489;SDS011;20730;49.372;7.324;2023-02-01T04:15:25;17.40;;;9.43;;
34489;SDS011;20730;49.372;7.324;2023-02-01T04:17:52;14.73;;;9.65;;
34489;SDS011;20730;49.372;7.324;2023-02-01T04:20:19;15.50;;;9.43;;
34489;SDS011;20730;49.372;7.324;2023-02-01T04:22:47;17.45;;;9.43;;
34489;SDS011;20730;49.372;7.324;2023-02-01T04:25:14;20.33;;;9.02;;
34489;SDS011;20730;49.372;7.324;2023-02-01T04:27:41;18.02;;;9.68;;
34489;SDS011;20730;49.372;7.324;2023-02-01T04:30:08;16.08;;;8.40;;
34489;SDS011;20730;49.372;7.324;2023-02-01T04:32:36;20.38;;;10.10;;
34489;SDS011;20730;49.372;7.324;2023-02-01T04:35:04;13.38;;;6.93;;
34489;SDS011;20730;49.372;7.324;2023-02-01T04:37:32;11.60;;;5.47;;
34489;SDS011;20730;49.372;7.324;2023-02-01T04:39:59;7.88;;;4.95;;
34489;SDS011;20730;49.372;7.324;2023-02-01T04:42:27;4.95;;;3.80;;
34489;SDS011;20730;49.372;7.324;2023-02-01T04:44:54;5.38;;;4.00;;
34489;SDS011;20730;49.372;7.324;2023-02-01T04:47:21;8.43;;;4.38;;
34489;SDS011;20730;49.372;7.324;2023-02-01T04:49:48;11.35;;;6.03;;
34489;SDS011;20730;49.372;7.324;2023-02-01T04:52:14;12.20;;;7.00;;
34489;SDS011;20730;49.372;7.324;2023-02-01T04:54:41;17.88;;;7.82;;
34489;SDS011;20730;49.372;7.324;2023-02-01T04:57:08;15.55;;;8.40;;
34489;SDS011;20730;49.372;7.324;2023-02-01T04:59:35;19.10;;;9.20;;
34489;SDS011;20730;49.372;7.324;2023-02-01T05:02:02;15.75;;;9.95;;
34489;SDS011;20730;49.372;7.324;2023-02-01T05:04:29;22.27;;;9.73;;
34489;SDS011;20730;49.372;7.324;2023-02-01T05:06:56;24.63;;;10.73;;
34489;SDS011;20730;49.372;7.324;2023-02-01T05:09:23;26.30;;;11.65;;
34489;SDS011;20730;49.372;7.324;2023-02-01T05:11:50;24.50;;;10.00;;
34489;SDS011;20730;49.372;7.324;2023-02-01T05:14:36;18.42;;;9.77;;
34489;SDS011;20730;49.372;7.324;2023-02-01T05:17:03;20.45;;;11.00;;
34489;SDS011;20730;49.372;7.324;2023-02-01T05:19:29;19.65;;;10.02;;
34489;SDS011;20730;49.372;7.324;2023-02-01T05:21:57;20.42;;;9.70;;
34489;SDS011;20730;49.372;7.324;2023-02-01T05:24:24;20.58;;;10.32;;
34489;SDS011;20730;49.372;7.324;2023-02-01T05:26:51;14.35;;;8.32;;
34489;SDS011;20730;49.372;7.324;2023-02-01T05:29:18;17.48;;;9.05;;
34489;SDS011;20730;49.372;7.324;2023-02-01T05:31:45;21.27;;;8.88;;
34489;SDS011;20730;49.372;7.324;2023-02-01T05:34:13;15.13;;;8.95;;
34489;SDS011;20730;49.372;7.324;2023-02-01T05:36:41;18.15;;;9.30;;
34489;SDS011;20730;49.372;7.324;2023-02-01T05:39:08;16.13;;;7.60;;
34489;SDS011;20730;49.372;7.324;2023-02-01T05:41:37;18.35;;;7.97;;
34489;SDS011;20730;49.372;7.324;2023-02-01T05:44:04;16.33;;;7.15;;
34489;SDS011;20730;49.372;7.324;2023-02-01T05:46:34;12.67;;;6.23;;
34489;SDS011;20730;49.372;7.324;2023-02-01T05:49:02;11.98;;;6.22;;
34489;SDS011;20730;49.372;7.324;2023-02-01T05:51:30;13.43;;;5.82;;
34489;SDS011;20730;49.372;7.324;2023-02-01T05:53:57;17.17;;;5.93;;
34489;SDS011;20730;49.372;7.324;2023-02-01T05:56:24;16.05;;;5.60;;
34489;SDS011;20730;49.372;7.324;2023-02-01T05:58:50;15.25;;;5.93;;
34489;SDS011;20730;49.372;7.324;2023-02-01T06:01:17;13.02;;;6.22;;
34489;SDS011;20730;49.372;7.324;2023-02-01T06:03:44;14.55;;;6.25;;
34489;SDS011;20730;49.372;7.324;2023-02-01T06:06:12;16.30;;;6.45;;
34489;SDS011;20730;49.372;7.324;2023-02-01T06:08:39;14.75;;;7.07;;
34489;SDS011;20730;49.372;7.324;2023-02-01T06:11:09;17.42;;;7.30;;
34489;SDS011;20730;49.372;7.324;2023-02-01T06:13:39;21.42;;;7.60;;
34489;SDS011;20730;49.372;7.324;2023-02-01T06:16:05;20.50;;;8.02;;
34489;SDS011;20730;49.372;7.324;2023-02-01T06:18:34;22.13;;;7.95;;
34489;SDS011;20730;49.372;7.324;2023-02-01T06:21:01;22.15;;;7.85;;
34489;SDS011;20730;49.372;7.324;2023-02-01T06:23:29;13.05;;;6.32;;
34489;SDS011;20730;49.372;7.324;2023-02-01T06:26:04;23.48;;;8.40;;
34489;SDS011;20730;49.372;7.324;2023-02-01T06:28:32;22.98;;;7.75;;
34489;SDS011;20730;49.372;7.324;2023-02-01T06:31:03;28.20;;;8.63;;
34489;SDS011;20730;49.372;7.324;2023-02-01T06:33:33;16.75;;;6.22;;
34489;SDS011;20730;49.372;7.324;2023-02-01T06:36:01;18.00;;;7.53;;
34489;SDS011;20730;49.372;7.324;2023-02-01T06:38:30;19.33;;;8.77;;
34489;SDS011;20730;49.372;7.324;2023-02-01T06:40:58;20.35;;;6.25;;
34489;SDS011;20730;49.372;7.324;2023-02-01T06:43:26;28.20;;;8.98;;
34489;SDS011;20730;49.372;7.324;2023-02-01T06:45:58;26.38;;;9.05;;
34489;SDS011;20730;49.372;7.324;2023-02-01T06:48:26;21.05;;;8.40;;
34489;SDS011;20730;49.372;7.324;2023-02-01T06:50:53;22.33;;;8.15;;
34489;SDS011;20730;49.372;7.324;2023-02-01T06:53:19;18.58;;;7.10;;
34489;SDS011;20730;49.372;7.324;2023-02-01T06:58:21;26.70;;;8.70;;
34489;SDS011;20730;49.372;7.324;2023-02-01T07:00:48;23.27;;;8.13;;
34489;SDS011;20730;49.372;7.324;2023-02-01T07:03:15;24.10;;;8.20;;
34489;SDS011;20730;49.372;7.324;2023-02-01T07:05:42;19.58;;;8.07;;
34489;SDS011;20730;49.372;7.324;2023-02-01T07:08:09;21.88;;;8.02;;
34489;SDS011;20730;49.372;7.324;2023-02-01T07:10:36;22.67;;;8.45;;
34489;SDS011;20730;49.372;7.324;2023-02-01T07:13:04;26.63;;;8.40;;
34489;SDS011;20730;49.372;7.324;2023-02-01T07:15:31;22.92;;;8.57;;
34489;SDS011;20730;49.372;7.324;2023-02-01T07:17:59;27.10;;;8.13;;
34489;SDS011;20730;49.372;7.324;2023-02-01T07:20:26;15.98;;;6.50;;
34489;SDS011;20730;49.372;7.324;2023-02-01T07:22:54;22.90;;;6.78;;
34489;SDS011;20730;49.372;7.324;2023-02-01T07:25:24;23.30;;;7.40;;
34489;SDS011;20730;49.372;7.324;2023-02-01T07:27:51;19.48;;;6.85;;
34489;SDS011;20730;49.372;7.324;2023-02-01T07:30:19;18.13;;;6.38;;
34489;SDS011;20730;49.372;7.324;2023-02-01T07:32:46;22.30;;;7.35;;
34489;SDS011;20730;49.372;7.324;2023-02-01T07:35:13;24.83;;;8.80;;
34489;SDS011;20730;49.372;7.324;2023-02-01T07:37:40;24.00;;;7.68;;
34489;SDS011;20730;49.372;7.324;2023-02-01T07:40:07;20.50;;;6.68;;
34489;SDS011;20730;49.372;7.324;2023-02-01T07:42:35;24.63;;;7.35;;
34489;SDS011;20730;49.372;7.324;2023-02-01T07:45:02;22.05;;;6.35;;
34489;SDS011;20730;49.372;7.324;2023-02-01T07:47:46;20.08;;;6.22;;
34489;SDS011;20730;49.372;7.324;2023-02-01T07:50:13;18.45;;;6.03;;
34489;SDS011;20730;49.372;7.324;2023-02-01T07:52:40;19.33;;;6.07;;
34489;SDS011;20730;49.372;7.324;2023-02-01T07:55:08;22.70;;;6.20;;
34489;SDS011;20730;49.372;7.324;2023-02-01T07:57:35;15.27;;;5.45;;
34489;SDS011;20730;49.372;7.324;2023-02-01T08:00:02;17.25;;;5.25;;
34489;SDS011;20730;49.372;7.324;2023-02-01T08:02:49;20.10;;;5.90;;
34489;SDS011;20730;49.372;7.324;2023-02-01T08:05:16;21.23;;;6.63;;
34489;SDS011;20730;49.372;7.324;2023-02-01T08:07:43;20.40;;;6.13;;
34489;SDS011;20730;49.372;7.324;2023-02-01T08:10:10;26.45;;;6.53;;
34489;SDS011;20730;49.372;7.324;2023-02-01T08:12:38;17.40;;;4.93;;
34489;SDS011;20730;49.372;7.324;2023-02-01T08:15:05;24.60;;;5.88;;
34489;SDS011;20730;49.372;7.324;2023-02-01T08:17:32;21.88;;;5.43;;
34489;SDS011;20730;49.372;7.324;2023-02-01T08:20:00;23.00;;;5.72;;
34489;SDS011;20730;49.372;7.324;2023-02-01T08:22:30;19.23;;;5.30;;
34489;SDS011;20730;49.372;7.324;2023-02-01T08:24:58;23.50;;;5.95;;
34489;SDS011;20730;49.372;7.324;2023-02-01T08:27:28;20.67;;;5.80;;
34489;SDS011;20730;49.372;7.324;2023-02-01T08:29:55;24.38;;;5.45;;
34489;SDS011;20730;49.372;7.324;2023-02-01T08:32:22;20.80;;;6.30;;
34489;SDS011;20730;49.372;7.324;2023-02-01T08:34:49;17.27;;;4.93;;
34489;SDS011;20730;49.372;7.324;2023-02-01T08:37:16;26.98;;;6.20;;
34489;SDS011;20730;49.372;7.324;2023-02-01T08:39:43;21.42;;;4.65;;
34489;SDS011;20730;49.372;7.324;2023-02-01T08:42:13;22.45;;;5.57;;
34489;SDS011;20730;49.372;7.324;2023-02-01T08:44:58;29.67;;;6.05;;
34489;SDS011;20730;49.372;7.324;2023-02-01T08:47:26;27.27;;;5.90;;
34489;SDS011;20730;49.372;7.324;2023-02-01T08:49:52;22.33;;;5.38;;
34489;SDS011;20730;49.372;7.324;2023-02-01T08:52:20;14.80;;;4.93;;
34489;SDS011;20730;49.372;7.324;2023-02-01T08:54:47;22.67;;;4.97;;
34489;SDS011;20730;49.372;7.324;2023-02-01T08:57:14;22.38;;;4.70;;
34489;SDS011;20730;49.372;7.324;2023-02-01T08:59:41;20.80;;;4.00;;
34489;SDS011;20730;49.372;7.324;2023-02-01T09:02:08;22.15;;;5.03;;
34489;SDS011;20730;49.372;7.324;2023-02-01T09:04:39;19.63;;;4.15;;
34489;SDS011;20730;49.372;7.324;2023-02-01T09:07:06;16.90;;;3.63;;
34489;SDS011;20730;49.372;7.324;2023-02-01T09:09:33;17.05;;;3.83;;
34489;SDS011;20730;49.372;7.324;2023-02-01T09:12:00;13.88;;;3.95;;
34489;SDS011;20730;49.372;7.324;2023-02-01T09:14:29;18.92;;;4.90;;
34489;SDS011;20730;49.372;7.324;2023-02-01T09:16:56;17.83;;;4.70;;
34489;SDS011;20730;49.372;7.324;2023-02-01T09:19:23;16.35;;;3.92;;
34489;SDS011;20730;49.372;7.324;2023-02-01T09:21:52;18.63;;;3.85;;
34489;SDS011;20730;49.372;7.324;2023-02-01T09:24:19;14.68;;;3.85;;
34489;SDS011;20730;49.372;7.324;2023-02-01T09:26:46;23.95;;;4.18;;
34489;SDS011;20730;49.372;7.324;2023-02-01T09:29:13;18.77;;;3.85;;
34489;SDS011;20730;49.372;7.324;2023-02-01T09:31:41;22.67;;;4.03;;
34489;SDS011;20730;49.372;7.324;2023-02-01T09:34:22;22.60;;;3.97;;
34489;SDS011;20730;49.372;7.324;2023-02-01T09:36:49;20.42;;;4.40;;
34489;SDS011;20730;49.372;7.324;2023-02-01T09:39:16;17.17;;;3.40;;
34489;SDS011;20730;49.372;7.324;2023-02-01T09:47:19;19.23;;;3.90;;
34489;SDS011;20730;49.372;7.324;2023-02-01T09:50:00;16.75;;;3.80;;
34489;SDS011;20730;49.372;7.324;2023-02-01T09:52:34;21.35;;;3.60;;
34489;SDS011;20730;49.372;7.324;2023-02-01T09:55:07;19.42;;;3.67;;
34489;SDS011;20730;49.372;7.324;2023-02-01T10:00:58;23.08;;;3.13;;
34489;SDS011;20730;49.372;7.324;2023-02-01T10:03:28;17.27;;;4.10;;
34489;SDS011;20730;49.372;7.324;2023-02-01T10:06:04;21.83;;;3.63;;
34489;SDS011;20730;49.372;7.324;2023-02-01T10:19:54;23.90;;;4.15;;
34489;SDS011;20730;49.372;7.324;2023-02-01T10:22:33;16.15;;;3.70;;
34489;SDS011;20730;49.372;7.324;2023-02-01T10:28:09;21.67;;;3.53;;
34489;SDS011;20730;49.372;7.324;2023-02-01T10:30:42;19.27;;;3.88;;
34489;SDS011;20730;49.372;7.324;2023-02-01T10:33:22;24.08;;;4.43;;
34489;SDS011;20730;49.372;7.324;2023-02-01T10:36:00;17.67;;;3.35;;
34489;SDS011;20730;49.372;7.324;2023-02-01T10:38:31;21.33;;;4.53;;
34489;SDS011;20730;49.372;7.324;2023-02-01T10:41:03;25.08;;;4.15;;
34489;SDS011;20730;49.372;7.324;2023-02-01T10:43:36;18.05;;;3.45;;
34489;SDS011;20730;49.372;7.324;2023-02-01T10:46:05;18.75;;;3.15;;
34489;SDS011;20730;49.372;7.324;2023-02-01T10:48:33;18.58;;;3.30;;
34489;SDS011;20730;49.372;7.324;2023-02-01T10:51:12;16.35;;;3.05;;
34489;SDS011;20730;49.372;7.324;2023-02-01T10:56:23;17.70;;;3.10;;
34489;SDS011;20730;49.372;7.324;2023-02-01T10:58:51;19.17;;;3.40;;
34489;SDS011;20730;49.372;7.324;2023-02-01T11:01:42;17.83;;;3.13;;
34489;SDS011;20730;49.372;7.324;2023-02-01T11:04:17;22.33;;;3.05;;
34489;SDS011;20730;49.372;7.324;2023-02-01T11:09:24;18.30;;;3.55;;
34489;SDS011;20730;49.372;7.324;2023-02-01T11:14:20;16.65;;;3.10;;
34489;SDS011;20730;49.372;7.324;2023-02-01T11:16:55;21.58;;;3.03;;
34489;SDS011;20730;49.372;7.324;2023-02-01T11:21:52;19.38;;;2.88;;
34489;SDS011;20730;49.372;7.324;2023-02-01T11:26:53;24.77;;;3.88;;
34489;SDS011;20730;49.372;7.324;2023-02-01T11:29:22;22.02;;;3.28;;
34489;SDS011;20730;49.372;7.324;2023-02-01T11:31:57;18.23;;;3.75;;
34489;SDS011;20730;49.372;7.324;2023-02-01T11:34:31;20.48;;;3.17;;
34489;SDS011;20730;49.372;7.324;2023-02-01T11:37:20;15.02;;;3.28;;
34489;SDS011;20730;49.372;7.324;2023-02-01T11:39:58;26.90;;;3.70;;
34489;SDS011;20730;49.372;7.324;2023-02-01T11:42:27;14.90;;;3.10;;
34489;SDS011;20730;49.372;7.324;2023-02-01T11:47:43;21.80;;;3.30;;
34489;SDS011;20730;49.372;7.324;2023-02-01T11:50:17;18.15;;;3.22;;
34489;SDS011;20730;49.372;7.324;2023-02-01T11:53:09;16.65;;;2.85;;
34489;SDS011;20730;49.372;7.324;2023-02-01T12:37:02;12.48;;;2.47;;
34489;SDS011;20730;49.372;7.324;2023-02-01T12:39:59;22.90;;;3.65;;
34489;SDS011;20730;49.372;7.324;2023-02-01T12:42:40;14.82;;;2.85;;
34489;SDS011;20730;49.372;7.324;2023-02-01T12:45:20;18.00;;;2.75;;
34489;SDS011;20730;49.372;7.324;2023-02-01T12:51:22;12.70;;;2.30;;
34489;SDS011;20730;49.372;7.324;2023-02-01T12:53:55;13.65;;;2.63;;
34489;SDS011;20730;49.372;7.324;2023-02-01T12:56:30;12.57;;;2.47;;
34489;SDS011;20730;49.372;7.324;2023-02-01T12:59:00;15.18;;;2.58;;
34489;SDS011;20730;49.372;7.324;2023-02-01T13:06:43;12.00;;;2.40;;
34489;SDS011;20730;49.372;7.324;2023-02-01T13:12:14;17.50;;;2.97;;
34489;SDS011;20730;49.372;7.324;2023-02-01T13:14:46;13.27;;;2.67;;
34489;SDS011;20730;49.372;7.324;2023-02-01T13:17:27;14.45;;;2.47;;
34489;SDS011;20730;49.372;7.324;2023-02-01T13:22:43;9.73;;;1.55;;
34489;SDS011;20730;49.372;7.324;2023-02-01T13:28:17;11.57;;;2.15;;
34489;SDS011;20730;49.372;7.324;2023-02-01T13:30:55;16.15;;;2.50;;
34489;SDS011;20730;49.372;7.324;2023-02-01T13:38:51;16.38;;;2.63;;
34489;SDS011;20730;49.372;7.324;2023-02-01T13:42:00;14.00;;;2.42;;
34489;SDS011;20730;49.372;7.324;2023-02-01T13:44:40;12.05;;;2.15;;
34489;SDS011;20730;49.372;7.324;2023-02-01T13:49:59;19.00;;;2.40;;
34489;SDS011;20730;49.372;7.324;2023-02-01T13:52:36;12.40;;;2.58;;
34489;SDS011;20730;49.372;7.324;2023-02-01T13:55:14;11.63;;;2.15;;
34489;SDS011;20730;49.372;7.324;2023-02-01T13:57:47;6.30;;;1.55;;
34489;SDS011;20730;49.372;7.324;2023-02-01T14:00:29;13.30;;;2.50;;
34489;SDS011;20730;49.372;7.324;2023-02-01T14:10:47;16.77;;;2.70;;
34489;SDS011;20730;49.372;7.324;2023-02-01T14:13:28;16.23;;;2.08;;
34489;SDS011;20730;49.372;7.324;2023-02-01T14:28:57;25.92;;;2.15;;
34489;SDS011;20730;49.372;7.324;2023-02-01T14:31:31;12.73;;;2.40;;
34489;SDS011;20730;49.372;7.324;2023-02-01T14:34:01;15.32;;;2.42;;
34489;SDS011;20730;49.372;7.324;2023-02-01T14:36:42;10.07;;;1.75;;
34489;SDS011;20730;49.372;7.324;2023-02-01T14:42:00;13.68;;;1.98;;
34489;SDS011;20730;49.372;7.324;2023-02-01T14:44:31;11.82;;;2.65;;
34489;SDS011;20730;49.372;7.324;2023-02-01T14:47:10;13.52;;;2.85;;
34489;SDS011;20730;49.372;7.324;2023-02-01T14:49:56;10.75;;;2.40;;
34489;SDS011;20730;49.372;7.324;2023-02-01T14:52:31;17.00;;;2.47;;
34489;SDS011;20730;49.372;7.324;2023-02-01T14:55:01;11.45;;;2.45;;
34489;SDS011;20730;49.372;7.324;2023-02-01T14:57:33;16.92;;;2.30;;
34489;SDS011;20730;49.372;7.324;2023-02-01T15:00:10;12.63;;;2.70;;
34489;SDS011;20730;49.372;7.324;2023-02-01T15:02:44;14.13;;;2.20;;
34489;SDS011;20730;49.372;7.324;2023-02-01T15:05:27;23.13;;;2.50;;
34489;SDS011;20730;49.372;7.324;2023-02-01T15:07:58;16.77;;;2.50;;
34489;SDS011;20730;49.372;7.324;2023-02-01T15:10:30;15.00;;;2.25;;
34489;SDS011;20730;49.372;7.324;2023-02-01T15:12:58;12.52;;;2.42;;
34489;SDS011;20730;49.372;7.324;2023-02-01T15:15:25;12.63;;;2.13;;
34489;SDS011;20730;49.372;7.324;2023-02-01T15:17:58;14.63;;;2.30;;
34489;SDS011;20730;49.372;7.324;2023-02-01T15:20:27;16.77;;;2.50;;
34489;SDS011;20730;49.372;7.324;2023-02-01T15:25:28;12.93;;;2.40;;
34489;SDS011;20730;49.372;7.324;2023-02-01T15:27:57;17.15;;;2.35;;
34489;SDS011;20730;49.372;7.324;2023-02-01T15:30:25;13.75;;;2.50;;
34489;SDS011;20730;49.372;7.324;2023-02-01T15:33:33;17.73;;;2.70;;
34489;SDS011;20730;49.372;7.324;2023-02-01T15:38:34;14.13;;;2.03;;
34489;SDS011;20730;49.372;7.324;2023-02-01T15:43:37;17.02;;;2.83;;
34489;SDS011;20730;49.372;7.324;2023-02-01T15:46:15;18.35;;;3.33;;
34489;SDS011;20730;49.372;7.324;2023-02-01T15:48:49;14.55;;;2.80;;
34489;SDS011;20730;49.372;7.324;2023-02-01T15:51:19;16.08;;;2.78;;
34489;SDS011;20730;49.372;7.324;2023-02-01T15:56:21;13.63;;;2.53;;
34489;SDS011;20730;49.372;7.324;2023-02-01T15:58:58;13.55;;;2.30;;
34489;SDS011;20730;49.372;7.324;2023-02-01T16:01:26;15.52;;;2.88;;
34489;SDS011;20730;49.372;7.324;2023-02-01T16:06:47;10.13;;;2.17;;
34489;SDS011;20730;49.372;7.324;2023-02-01T16:09:17;20.13;;;2.83;;
34489;SDS011;20730;49.372;7.324;2023-02-01T16:11:59;16.85;;;2.80;;
34489;SDS011;20730;49.372;7.324;2023-02-01T16:14:27;12.80;;;2.65;;
34489;SDS011;20730;49.372;7.324;2023-02-01T16:16:56;10.23;;;2.17;;
34489;SDS011;20730;49.372;7.324;2023-02-01T16:19:24;14.27;;;2.03;;
34489;SDS011;20730;49.372;7.324;2023-02-01T16:21:55;12.65;;;2.25;;
34489;SDS011;20730;49.372;7.324;2023-02-01T16:24:22;16.33;;;2.20;;
34489;SDS011;20730;49.372;7.324;2023-02-01T16:26:51;12.68;;;2.25;;
34489;SDS011;20730;49.372;7.324;2023-02-01T16:29:18;12.13;;;2.28;;
34489;SDS011;20730;49.372;7.324;2023-02-01T16:31:45;15.88;;;5.10;;
34489;SDS011;20730;49.372;7.324;2023-02-01T16:34:15;14.40;;;3.15;;
34489;SDS011;20730;49.372;7.324;2023-02-01T16:36:48;21.90;;;6.30;;
34489;SDS011;20730;49.372;7.324;2023-02-01T16:39:21;20.15;;;4.15;;
34489;SDS011;20730;49.372;7.324;2023-02-01T16:41:48;16.23;;;3.78;;
34489;SDS011;20730;49.372;7.324;2023-02-01T16:44:16;16.92;;;3.83;;
34489;SDS011;20730;49.372;7.324;2023-02-01T16:46:44;16.95;;;2.88;;
34489;SDS011;20730;49.372;7.324;2023-02-01T16:49:22;11.27;;;2.47;;
34489;SDS011;20730;49.372;7.324;2023-02-01T16:51:50;14.45;;;2.40;;
34489;SDS011;20730;49.372;7.324;2023-02-01T16:54:21;14.52;;;2.72;;
34489;SDS011;20730;49.372;7.324;2023-02-01T16:56:48;12.70;;;3.15;;
34489;SDS011;20730;49.372;7.324;2023-02-01T16:59:15;23.08;;;3.58;;
34489;SDS011;20730;49.372;7.324;2023-02-01T17:01:42;14.65;;;2.35;;
34489;SDS011;20730;49.372;7.324;2023-02-01T17:04:10;15.55;;;2.30;;
34489;SDS011;20730;49.372;7.324;2023-02-01T17:06:38;16.55;;;3.33;;
34489;SDS011;20730;49.372;7.324;2023-02-01T17:09:06;14.10;;;2.78;;
34489;SDS011;20730;49.372;7.324;2023-02-01T17:11:33;16.63;;;3.20;;
34489;SDS011;20730;49.372;7.324;2023-02-01T17:14:10;13.30;;;3.08;;
34489;SDS011;20730;49.372;7.324;2023-02-01T17:16:41;13.77;;;2.63;;
34489;SDS011;20730;49.372;7.324;2023-02-01T17:19:11;17.42;;;2.63;;
34489;SDS011;20730;49.372;7.324;2023-02-01T17:21:41;11.23;;;2.50;;
34489;SDS011;20730;49.372;7.324;2023-02-01T17:24:14;20.33;;;2.92;;
34489;SDS011;20730;49.372;7.324;2023-02-01T17:26:42;10.52;;;2.05;;
34489;SDS011;20730;49.372;7.324;2023-02-01T17:29:10;17.60;;;2.92;;
34489;SDS011;20730;49.372;7.324;2023-02-01T17:31:38;17.17;;;3.15;;
34489;SDS011;20730;49.372;7.324;2023-02-01T17:34:08;29.98;;;3.58;;
34489;SDS011;20730;49.372;7.324;2023-02-01T17:36:36;21.13;;;2.75;;
34489;SDS011;20730;49.372;7.324;2023-02-01T17:39:05;15.50;;;2.92;;
34489;SDS011;20730;49.372;7.324;2023-02-01T17:41:32;20.10;;;2.80;;
34489;SDS011;20730;49.372;7.324;2023-02-01T17:44:00;18.17;;;3.35;;
34489;SDS011;20730;49.372;7.324;2023-02-01T17:46:27;13.23;;;2.78;;
34489;SDS011;20730;49.372;7.324;2023-02-01T17:48:54;17.90;;;3.47;;
34489;SDS011;20730;49.372;7.324;2023-02-01T17:51:22;12.23;;;2.08;;
34489;SDS011;20730;49.372;7.324;2023-02-01T17:53:53;17.58;;;3.45;;
34489;SDS011;20730;49.372;7.324;2023-02-01T17:56:21;19.00;;;2.92;;
34489;SDS011;20730;49.372;7.324;2023-02-01T17:58:49;17.52;;;2.78;;
34489;SDS011;20730;49.372;7.324;2023-02-01T18:01:20;13.73;;;2.83;;